sensor_id;sensor_type;location;lat;lon;timestamp;P1;durP1;ratioP1;P2;durP2;ratioP2
20986;SDS011;10652;50.306;8.570;2022-08-19T00:02:37;15.32;;;12.07;;
20986;SDS011;10652;50.306;8.570;2022-08-19T00:06:51;14.75;;;12.02;;
20986;SDS011;10652;50.306;8.570;2022-08-19T00:10:54;14.35;;;12.55;;
20986;SDS011;10652;50.306;8.570;2022-08-19T00:14:56;16.50;;;13.15;;
20986;SDS011;10652;50.306;8.570;2022-08-19T00:18:58;15.43;;;12.43;;
20986;SDS011;10652;50.306;8.570;2022-08-19T00:23:00;15.13;;;12.57;;
20986;SDS011;10652;50.306;8.570;2022-08-19T00:27:02;15.43;;;12.45;;
20986;SDS011;10652;50.306;8.570;2022-08-19T00:31:24;14.77;;;12.55;;
20986;SDS011;10652;50.306;8.570;2022-08-19T00:35:26;14.27;;;11.70;;
20986;SDS011;10652;50.306;8.570;2022-08-19T00:39:29;16.25;;;12.13;;
20986;SDS011;10652;50.306;8.570;2022-08-19T00:43:32;15.23;;;12.40;;
20986;SDS011;10652;50.306;8.570;2022-08-19T00:47:34;14.65;;;11.68;;
20986;SDS011;10652;50.306;8.570;2022-08-19T00:51:38;13.68;;;12.18;;
20986;SDS011;10652;50.306;8.570;2022-08-19T00:55:40;14.57;;;12.80;;
20986;SDS011;10652;50.306;8.570;2022-08-19T00:59:45;15.98;;;12.35;;
20986;SDS011;10652;50.306;8.570;2022-08-19T01:04:03;15.70;;;13.40;;
20986;SDS011;10652;50.306;8.570;2022-08-19T01:08:05;16.88;;;13.23;;
20986;SDS011;10652;50.306;8.570;2022-08-19T01:12:08;15.43;;;13.15;;
20986;SDS011;10652;50.306;8.570;2022-08-19T01:16:12;16.02;;;12.80;;
20986;SDS011;10652;50.306;8.570;2022-08-19T01:20:18;14.43;;;12.82;;
20986;SDS011;10652;50.306;8.570;2022-08-19T01:24:23;16.10;;;12.93;;
20986;SDS011;10652;50.306;8.570;2022-08-19T01:28:26;15.65;;;12.95;;
20986;SDS011;10652;50.306;8.570;2022-08-19T01:32:39;16.42;;;13.30;;
20986;SDS011;10652;50.306;8.570;2022-08-19T01:36:42;17.20;;;13.40;;
20986;SDS011;10652;50.306;8.570;2022-08-19T01:40:49;14.30;;;12.40;;
20986;SDS011;10652;50.306;8.570;2022-08-19T01:44:51;14.55;;;12.00;;
20986;SDS011;10652;50.306;8.570;2022-08-19T01:48:53;14.45;;;12.85;;
20986;SDS011;10652;50.306;8.570;2022-08-19T01:52:55;14.45;;;12.40;;
20986;SDS011;10652;50.306;8.570;2022-08-19T01:57:08;15.95;;;12.43;;
20986;SDS011;10652;50.306;8.570;2022-08-19T02:01:13;14.37;;;11.97;;
20986;SDS011;10652;50.306;8.570;2022-08-19T02:05:16;13.10;;;11.65;;
20986;SDS011;10652;50.306;8.570;2022-08-19T02:09:19;13.55;;;11.98;;
20986;SDS011;10652;50.306;8.570;2022-08-19T02:13:22;12.20;;;10.93;;
20986;SDS011;10652;50.306;8.570;2022-08-19T02:17:27;13.55;;;11.93;;
20986;SDS011;10652;50.306;8.570;2022-08-19T02:21:30;13.32;;;10.55;;
20986;SDS011;10652;50.306;8.570;2022-08-19T02:25:33;14.07;;;11.63;;
20986;SDS011;10652;50.306;8.570;2022-08-19T02:29:35;15.32;;;12.00;;
20986;SDS011;10652;50.306;8.570;2022-08-19T02:33:37;12.02;;;10.57;;
20986;SDS011;10652;50.306;8.570;2022-08-19T02:37:42;13.57;;;11.38;;
20986;SDS011;10652;50.306;8.570;2022-08-19T02:42:04;13.13;;;11.65;;
20986;SDS011;10652;50.306;8.570;2022-08-19T02:46:14;13.38;;;11.82;;
20986;SDS011;10652;50.306;8.570;2022-08-19T02:50:22;13.32;;;11.60;;
20986;SDS011;10652;50.306;8.570;2022-08-19T02:54:24;12.43;;;10.95;;
20986;SDS011;10652;50.306;8.570;2022-08-19T02:58:27;14.77;;;12.45;;
20986;SDS011;10652;50.306;8.570;2022-08-19T03:02:29;14.20;;;12.00;;
20986;SDS011;10652;50.306;8.570;2022-08-19T03:06:33;13.25;;;11.45;;
20986;SDS011;10652;50.306;8.570;2022-08-19T03:10:45;14.43;;;12.13;;
20986;SDS011;10652;50.306;8.570;2022-08-19T03:14:49;16.05;;;12.68;;
20986;SDS011;10652;50.306;8.570;2022-08-19T03:18:53;15.48;;;12.45;;
20986;SDS011;10652;50.306;8.570;2022-08-19T03:22:55;15.70;;;11.70;;
20986;SDS011;10652;50.306;8.570;2022-08-19T03:26:57;16.23;;;12.23;;
20986;SDS011;10652;50.306;8.570;2022-08-19T03:31:08;13.88;;;11.93;;
20986;SDS011;10652;50.306;8.570;2022-08-19T03:35:34;16.27;;;13.00;;
20986;SDS011;10652;50.306;8.570;2022-08-19T03:39:38;14.30;;;12.40;;
20986;SDS011;10652;50.306;8.570;2022-08-19T03:43:42;16.45;;;12.77;;
20986;SDS011;10652;50.306;8.570;2022-08-19T03:47:48;15.35;;;11.52;;
20986;SDS011;10652;50.306;8.570;2022-08-19T03:51:50;16.95;;;13.07;;
20986;SDS011;10652;50.306;8.570;2022-08-19T03:55:53;16.10;;;13.10;;
20986;SDS011;10652;50.306;8.570;2022-08-19T03:59:56;14.40;;;11.95;;
20986;SDS011;10652;50.306;8.570;2022-08-19T04:04:14;15.30;;;12.23;;
20986;SDS011;10652;50.306;8.570;2022-08-19T04:08:16;16.27;;;12.57;;
20986;SDS011;10652;50.306;8.570;2022-08-19T04:12:21;16.67;;;12.65;;
20986;SDS011;10652;50.306;8.570;2022-08-19T04:16:24;16.38;;;12.73;;
20986;SDS011;10652;50.306;8.570;2022-08-19T04:20:40;13.90;;;11.82;;
20986;SDS011;10652;50.306;8.570;2022-08-19T04:24:48;14.23;;;12.32;;
20986;SDS011;10652;50.306;8.570;2022-08-19T04:28:50;15.13;;;12.85;;
20986;SDS011;10652;50.306;8.570;2022-08-19T04:32:53;14.02;;;11.80;;
20986;SDS011;10652;50.306;8.570;2022-08-19T04:36:56;14.32;;;11.95;;
20986;SDS011;10652;50.306;8.570;2022-08-19T04:40:59;15.43;;;12.40;;
20986;SDS011;10652;50.306;8.570;2022-08-19T04:45:20;14.50;;;12.23;;
20986;SDS011;10652;50.306;8.570;2022-08-19T04:49:24;14.38;;;12.45;;
20986;SDS011;10652;50.306;8.570;2022-08-19T04:53:28;17.55;;;12.40;;
20986;SDS011;10652;50.306;8.570;2022-08-19T04:57:38;14.98;;;11.55;;
20986;SDS011;10652;50.306;8.570;2022-08-19T05:01:42;14.60;;;11.93;;
20986;SDS011;10652;50.306;8.570;2022-08-19T05:05:45;15.82;;;12.60;;
20986;SDS011;10652;50.306;8.570;2022-08-19T05:09:50;13.32;;;10.95;;
20986;SDS011;10652;50.306;8.570;2022-08-19T05:13:59;13.10;;;10.75;;
20986;SDS011;10652;50.306;8.570;2022-08-19T05:18:02;13.93;;;10.43;;
20986;SDS011;10652;50.306;8.570;2022-08-19T05:22:22;11.32;;;9.75;;
20986;SDS011;10652;50.306;8.570;2022-08-19T05:26:36;11.25;;;10.05;;
20986;SDS011;10652;50.306;8.570;2022-08-19T05:30:39;13.93;;;10.85;;
20986;SDS011;10652;50.306;8.570;2022-08-19T05:34:48;13.43;;;11.15;;
20986;SDS011;10652;50.306;8.570;2022-08-19T05:38:51;13.98;;;11.50;;
20986;SDS011;10652;50.306;8.570;2022-08-19T05:42:54;11.10;;;10.00;;
20986;SDS011;10652;50.306;8.570;2022-08-19T05:46:58;12.20;;;10.82;;
20986;SDS011;10652;50.306;8.570;2022-08-19T05:51:04;12.73;;;10.75;;
20986;SDS011;10652;50.306;8.570;2022-08-19T05:55:08;14.57;;;10.57;;
20986;SDS011;10652;50.306;8.570;2022-08-19T05:59:11;13.13;;;10.00;;
20986;SDS011;10652;50.306;8.570;2022-08-19T06:03:13;10.07;;;8.85;;
20986;SDS011;10652;50.306;8.570;2022-08-19T06:07:15;12.27;;;9.40;;
20986;SDS011;10652;50.306;8.570;2022-08-19T06:15:36;11.32;;;8.65;;
20986;SDS011;10652;50.306;8.570;2022-08-19T06:19:38;13.38;;;8.90;;
20986;SDS011;10652;50.306;8.570;2022-08-19T06:23:41;9.50;;;8.43;;
20986;SDS011;10652;50.306;8.570;2022-08-19T06:27:44;10.77;;;7.88;;
20986;SDS011;10652;50.306;8.570;2022-08-19T06:32:06;10.32;;;7.55;;
20986;SDS011;10652;50.306;8.570;2022-08-19T06:36:22;11.63;;;7.30;;
20986;SDS011;10652;50.306;8.570;2022-08-19T06:40:31;8.48;;;6.97;;
20986;SDS011;10652;50.306;8.570;2022-08-19T06:44:34;8.15;;;6.70;;
20986;SDS011;10652;50.306;8.570;2022-08-19T06:48:44;7.00;;;6.15;;
20986;SDS011;10652;50.306;8.570;2022-08-19T06:52:46;6.68;;;6.03;;
20986;SDS011;10652;50.306;8.570;2022-08-19T06:56:49;6.93;;;5.65;;
20986;SDS011;10652;50.306;8.570;2022-08-19T07:00:51;8.48;;;5.75;;
20986;SDS011;10652;50.306;8.570;2022-08-19T07:04:53;6.45;;;5.18;;
20986;SDS011;10652;50.306;8.570;2022-08-19T07:08:55;5.55;;;5.05;;
20986;SDS011;10652;50.306;8.570;2022-08-19T07:12:59;6.00;;;5.05;;
20986;SDS011;10652;50.306;8.570;2022-08-19T07:17:02;6.18;;;5.20;;
20986;SDS011;10652;50.306;8.570;2022-08-19T07:21:16;5.75;;;5.18;;
20986;SDS011;10652;50.306;8.570;2022-08-19T07:25:20;5.85;;;4.70;;
20986;SDS011;10652;50.306;8.570;2022-08-19T07:29:34;9.38;;;5.25;;
20986;SDS011;10652;50.306;8.570;2022-08-19T07:33:39;6.93;;;4.53;;
20986;SDS011;10652;50.306;8.570;2022-08-19T07:37:44;7.13;;;4.88;;
20986;SDS011;10652;50.306;8.570;2022-08-19T07:41:46;7.43;;;5.15;;
20986;SDS011;10652;50.306;8.570;2022-08-19T07:45:50;5.97;;;5.32;;
20986;SDS011;10652;50.306;8.570;2022-08-19T07:49:52;9.27;;;6.25;;
20986;SDS011;10652;50.306;8.570;2022-08-19T07:53:55;7.55;;;5.72;;
20986;SDS011;10652;50.306;8.570;2022-08-19T07:57:57;6.65;;;5.68;;
20986;SDS011;10652;50.306;8.570;2022-08-19T08:01:59;11.35;;;5.35;;
20986;SDS011;10652;50.306;8.570;2022-08-19T08:06:02;6.93;;;5.00;;
20986;SDS011;10652;50.306;8.570;2022-08-19T08:10:23;6.85;;;4.93;;
20986;SDS011;10652;50.306;8.570;2022-08-19T08:14:47;6.28;;;5.63;;
20986;SDS011;10652;50.306;8.570;2022-08-19T08:18:49;8.10;;;5.05;;
20986;SDS011;10652;50.306;8.570;2022-08-19T08:22:54;5.60;;;5.10;;
20986;SDS011;10652;50.306;8.570;2022-08-19T08:27:15;5.70;;;5.10;;
20986;SDS011;10652;50.306;8.570;2022-08-19T08:31:19;6.50;;;4.80;;
20986;SDS011;10652;50.306;8.570;2022-08-19T08:35:22;6.35;;;5.05;;
20986;SDS011;10652;50.306;8.570;2022-08-19T08:39:25;6.13;;;5.53;;
20986;SDS011;10652;50.306;8.570;2022-08-19T08:43:33;6.70;;;5.25;;
20986;SDS011;10652;50.306;8.570;2022-08-19T08:47:37;9.07;;;6.53;;
20986;SDS011;10652;50.306;8.570;2022-08-19T08:51:47;12.57;;;6.72;;
20986;SDS011;10652;50.306;8.570;2022-08-19T08:56:02;7.68;;;6.03;;
20986;SDS011;10652;50.306;8.570;2022-08-19T09:00:10;8.27;;;6.53;;
20986;SDS011;10652;50.306;8.570;2022-08-19T09:04:17;6.57;;;5.82;;
20986;SDS011;10652;50.306;8.570;2022-08-19T09:16:58;8.07;;;6.80;;
20986;SDS011;10652;50.306;8.570;2022-08-19T09:21:01;10.10;;;7.25;;
20986;SDS011;10652;50.306;8.570;2022-08-19T09:25:04;8.85;;;7.00;;
20986;SDS011;10652;50.306;8.570;2022-08-19T09:29:08;10.75;;;7.57;;
20986;SDS011;10652;50.306;8.570;2022-08-19T09:33:12;8.75;;;7.03;;
20986;SDS011;10652;50.306;8.570;2022-08-19T09:37:14;9.05;;;7.07;;
20986;SDS011;10652;50.306;8.570;2022-08-19T09:41:17;8.48;;;6.85;;
20986;SDS011;10652;50.306;8.570;2022-08-19T09:45:21;8.20;;;7.40;;
20986;SDS011;10652;50.306;8.570;2022-08-19T09:49:24;10.40;;;8.32;;
20986;SDS011;10652;50.306;8.570;2022-08-19T09:53:26;9.93;;;8.02;;
20986;SDS011;10652;50.306;8.570;2022-08-19T09:57:29;9.25;;;8.25;;
20986;SDS011;10652;50.306;8.570;2022-08-19T10:01:31;10.40;;;7.90;;
20986;SDS011;10652;50.306;8.570;2022-08-19T10:05:34;8.73;;;7.82;;
20986;SDS011;10652;50.306;8.570;2022-08-19T10:09:55;10.02;;;9.02;;
20986;SDS011;10652;50.306;8.570;2022-08-19T10:13:58;12.40;;;9.70;;
20986;SDS011;10652;50.306;8.570;2022-08-19T10:18:01;10.90;;;9.82;;
20986;SDS011;10652;50.306;8.570;2022-08-19T10:22:04;11.32;;;9.20;;
20986;SDS011;10652;50.306;8.570;2022-08-19T10:26:13;10.88;;;9.20;;
20986;SDS011;10652;50.306;8.570;2022-08-19T10:30:27;9.40;;;8.50;;
20986;SDS011;10652;50.306;8.570;2022-08-19T10:34:29;10.68;;;9.10;;
20986;SDS011;10652;50.306;8.570;2022-08-19T10:38:32;8.88;;;8.05;;
20986;SDS011;10652;50.306;8.570;2022-08-19T10:42:35;10.07;;;9.05;;
20986;SDS011;10652;50.306;8.570;2022-08-19T10:46:39;9.77;;;8.77;;
20986;SDS011;10652;50.306;8.570;2022-08-19T10:50:49;12.05;;;10.18;;
20986;SDS011;10652;50.306;8.570;2022-08-19T10:55:09;10.02;;;8.88;;
20986;SDS011;10652;50.306;8.570;2022-08-19T10:59:30;8.95;;;8.13;;
20986;SDS011;10652;50.306;8.570;2022-08-19T11:03:37;8.27;;;7.57;;
20986;SDS011;10652;50.306;8.570;2022-08-19T11:07:39;8.45;;;7.65;;
20986;SDS011;10652;50.306;8.570;2022-08-19T11:11:42;8.52;;;7.75;;
20986;SDS011;10652;50.306;8.570;2022-08-19T11:15:45;8.05;;;6.88;;
20986;SDS011;10652;50.306;8.570;2022-08-19T11:19:49;9.68;;;7.95;;
20986;SDS011;10652;50.306;8.570;2022-08-19T11:23:52;9.23;;;7.70;;
20986;SDS011;10652;50.306;8.570;2022-08-19T11:27:56;9.15;;;8.32;;
20986;SDS011;10652;50.306;8.570;2022-08-19T11:31:58;9.18;;;8.27;;
20986;SDS011;10652;50.306;8.570;2022-08-19T11:36:00;9.55;;;8.65;;
20986;SDS011;10652;50.306;8.570;2022-08-19T11:40:04;9.57;;;8.52;;
20986;SDS011;10652;50.306;8.570;2022-08-19T11:44:07;9.73;;;8.73;;
20986;SDS011;10652;50.306;8.570;2022-08-19T11:48:09;9.07;;;8.27;;
20986;SDS011;10652;50.306;8.570;2022-08-19T11:52:11;8.25;;;7.45;;
20986;SDS011;10652;50.306;8.570;2022-08-19T11:56:14;8.88;;;8.02;;
20986;SDS011;10652;50.306;8.570;2022-08-19T12:00:16;8.85;;;7.35;;
20986;SDS011;10652;50.306;8.570;2022-08-19T12:04:18;7.70;;;7.00;;
20986;SDS011;10652;50.306;8.570;2022-08-19T12:08:21;7.60;;;6.90;;
20986;SDS011;10652;50.306;8.570;2022-08-19T12:12:23;7.75;;;7.15;;
20986;SDS011;10652;50.306;8.570;2022-08-19T12:16:27;7.75;;;7.03;;
20986;SDS011;10652;50.306;8.570;2022-08-19T12:20:37;7.45;;;6.85;;
20986;SDS011;10652;50.306;8.570;2022-08-19T12:24:41;8.60;;;5.80;;
20986;SDS011;10652;50.306;8.570;2022-08-19T12:28:43;5.50;;;5.00;;
20986;SDS011;10652;50.306;8.570;2022-08-19T12:32:46;6.00;;;5.22;;
20986;SDS011;10652;50.306;8.570;2022-08-19T12:36:48;6.32;;;5.32;;
20986;SDS011;10652;50.306;8.570;2022-08-19T12:40:51;5.35;;;4.85;;
20986;SDS011;10652;50.306;8.570;2022-08-19T12:44:59;6.30;;;5.05;;
20986;SDS011;10652;50.306;8.570;2022-08-19T12:49:01;4.90;;;4.50;;
20986;SDS011;10652;50.306;8.570;2022-08-19T12:53:23;5.53;;;5.03;;
20986;SDS011;10652;50.306;8.570;2022-08-19T12:57:26;5.93;;;4.68;;
20986;SDS011;10652;50.306;8.570;2022-08-19T13:01:33;4.75;;;4.35;;
20986;SDS011;10652;50.306;8.570;2022-08-19T13:05:36;4.28;;;3.88;;
20986;SDS011;10652;50.306;8.570;2022-08-19T13:09:38;5.50;;;3.70;;
20986;SDS011;10652;50.306;8.570;2022-08-19T13:13:43;3.90;;;3.60;;
20986;SDS011;10652;50.306;8.570;2022-08-19T13:17:50;4.63;;;3.35;;
20986;SDS011;10652;50.306;8.570;2022-08-19T13:21:53;3.80;;;3.20;;
20986;SDS011;10652;50.306;8.570;2022-08-19T13:26:02;3.55;;;3.10;;
20986;SDS011;10652;50.306;8.570;2022-08-19T13:30:08;3.95;;;2.70;;
20986;SDS011;10652;50.306;8.570;2022-08-19T13:34:32;3.63;;;2.70;;
20986;SDS011;10652;50.306;8.570;2022-08-19T13:38:37;3.08;;;2.65;;
20986;SDS011;10652;50.306;8.570;2022-08-19T13:42:39;3.67;;;3.17;;
20986;SDS011;10652;50.306;8.570;2022-08-19T13:46:42;3.35;;;2.78;;
20986;SDS011;10652;50.306;8.570;2022-08-19T13:50:46;3.17;;;2.92;;
20986;SDS011;10652;50.306;8.570;2022-08-19T13:54:51;2.97;;;2.78;;
20986;SDS011;10652;50.306;8.570;2022-08-19T13:58:53;3.60;;;2.90;;
20986;SDS011;10652;50.306;8.570;2022-08-19T14:02:55;3.63;;;3.00;;
20986;SDS011;10652;50.306;8.570;2022-08-19T14:06:58;4.80;;;2.90;;
20986;SDS011;10652;50.306;8.570;2022-08-19T14:11:00;2.75;;;2.55;;
20986;SDS011;10652;50.306;8.570;2022-08-19T14:15:08;3.90;;;2.80;;
20986;SDS011;10652;50.306;8.570;2022-08-19T14:19:11;3.90;;;2.70;;
20986;SDS011;10652;50.306;8.570;2022-08-19T14:23:13;2.90;;;2.58;;
20986;SDS011;10652;50.306;8.570;2022-08-19T14:27:15;3.17;;;2.70;;
20986;SDS011;10652;50.306;8.570;2022-08-19T14:31:18;3.20;;;2.85;;
20986;SDS011;10652;50.306;8.570;2022-08-19T14:35:21;5.38;;;2.63;;
20986;SDS011;10652;50.306;8.570;2022-08-19T14:39:23;3.30;;;3.00;;
20986;SDS011;10652;50.306;8.570;2022-08-19T14:43:25;3.30;;;2.53;;
20986;SDS011;10652;50.306;8.570;2022-08-19T14:47:28;3.00;;;2.80;;
20986;SDS011;10652;50.306;8.570;2022-08-19T14:51:33;3.58;;;2.40;;
20986;SDS011;10652;50.306;8.570;2022-08-19T14:55:35;5.25;;;2.65;;
20986;SDS011;10652;50.306;8.570;2022-08-19T14:59:37;3.15;;;2.85;;
20986;SDS011;10652;50.306;8.570;2022-08-19T15:03:40;3.25;;;2.30;;
20986;SDS011;10652;50.306;8.570;2022-08-19T15:07:43;3.88;;;2.63;;
20986;SDS011;10652;50.306;8.570;2022-08-19T15:11:45;2.95;;;2.63;;
20986;SDS011;10652;50.306;8.570;2022-08-19T15:15:47;4.75;;;2.60;;
20986;SDS011;10652;50.306;8.570;2022-08-19T15:19:50;3.50;;;2.40;;
20986;SDS011;10652;50.306;8.570;2022-08-19T15:23:52;3.58;;;2.35;;
20986;SDS011;10652;50.306;8.570;2022-08-19T15:27:54;3.35;;;2.30;;
20986;SDS011;10652;50.306;8.570;2022-08-19T15:31:57;2.40;;;2.20;;
20986;SDS011;10652;50.306;8.570;2022-08-19T15:36:00;2.50;;;2.25;;
20986;SDS011;10652;50.306;8.570;2022-08-19T15:40:03;8.07;;;2.95;;
20986;SDS011;10652;50.306;8.570;2022-08-19T15:44:11;3.92;;;2.70;;
20986;SDS011;10652;50.306;8.570;2022-08-19T15:48:15;3.42;;;2.28;;
20986;SDS011;10652;50.306;8.570;2022-08-19T15:52:19;3.10;;;2.60;;
20986;SDS011;10652;50.306;8.570;2022-08-19T15:56:21;3.55;;;2.70;;
20986;SDS011;10652;50.306;8.570;2022-08-19T16:00:28;3.00;;;2.63;;
20986;SDS011;10652;50.306;8.570;2022-08-19T16:04:53;3.15;;;2.67;;
20986;SDS011;10652;50.306;8.570;2022-08-19T16:09:14;3.10;;;2.80;;
20986;SDS011;10652;50.306;8.570;2022-08-19T16:13:17;7.13;;;3.00;;
20986;SDS011;10652;50.306;8.570;2022-08-19T16:17:19;4.53;;;2.92;;
20986;SDS011;10652;50.306;8.570;2022-08-19T16:21:22;3.53;;;2.83;;
20986;SDS011;10652;50.306;8.570;2022-08-19T16:25:27;3.83;;;3.50;;
20986;SDS011;10652;50.306;8.570;2022-08-19T16:29:30;4.97;;;3.20;;
20986;SDS011;10652;50.306;8.570;2022-08-19T16:33:40;4.20;;;3.10;;
20986;SDS011;10652;50.306;8.570;2022-08-19T16:37:42;4.47;;;2.85;;
20986;SDS011;10652;50.306;8.570;2022-08-19T16:41:44;4.15;;;3.30;;
20986;SDS011;10652;50.306;8.570;2022-08-19T16:45:47;3.30;;;3.00;;
20986;SDS011;10652;50.306;8.570;2022-08-19T16:49:51;4.25;;;3.22;;
20986;SDS011;10652;50.306;8.570;2022-08-19T16:53:56;4.40;;;3.50;;
20986;SDS011;10652;50.306;8.570;2022-08-19T16:57:58;4.05;;;3.30;;
20986;SDS011;10652;50.306;8.570;2022-08-19T17:06:12;3.97;;;3.30;;
20986;SDS011;10652;50.306;8.570;2022-08-19T17:10:21;4.10;;;3.05;;
20986;SDS011;10652;50.306;8.570;2022-08-19T17:14:23;4.03;;;3.55;;
20986;SDS011;10652;50.306;8.570;2022-08-19T17:18:26;4.40;;;3.20;;
20986;SDS011;10652;50.306;8.570;2022-08-19T17:22:32;4.95;;;3.88;;
20986;SDS011;10652;50.306;8.570;2022-08-19T17:26:37;3.88;;;3.58;;
20986;SDS011;10652;50.306;8.570;2022-08-19T17:30:39;4.80;;;4.07;;
20986;SDS011;10652;50.306;8.570;2022-08-19T17:34:42;4.60;;;4.18;;
20986;SDS011;10652;50.306;8.570;2022-08-19T17:38:44;5.18;;;4.40;;
20986;SDS011;10652;50.306;8.570;2022-08-19T17:42:47;5.00;;;4.53;;
20986;SDS011;10652;50.306;8.570;2022-08-19T17:46:49;4.88;;;4.38;;
20986;SDS011;10652;50.306;8.570;2022-08-19T17:50:54;5.38;;;4.05;;
20986;SDS011;10652;50.306;8.570;2022-08-19T17:54:56;5.32;;;4.70;;
20986;SDS011;10652;50.306;8.570;2022-08-19T17:58:58;8.15;;;4.07;;
20986;SDS011;10652;50.306;8.570;2022-08-19T18:03:03;5.22;;;4.15;;
20986;SDS011;10652;50.306;8.570;2022-08-19T18:07:08;5.90;;;4.50;;
20986;SDS011;10652;50.306;8.570;2022-08-19T18:11:10;4.72;;;4.32;;
20986;SDS011;10652;50.306;8.570;2022-08-19T18:15:12;4.57;;;4.10;;
20986;SDS011;10652;50.306;8.570;2022-08-19T18:19:15;4.95;;;4.05;;
20986;SDS011;10652;50.306;8.570;2022-08-19T18:23:17;4.88;;;4.30;;
20986;SDS011;10652;50.306;8.570;2022-08-19T18:27:39;4.82;;;4.40;;
20986;SDS011;10652;50.306;8.570;2022-08-19T18:31:44;4.43;;;4.03;;
20986;SDS011;10652;50.306;8.570;2022-08-19T18:35:46;5.50;;;4.60;;
20986;SDS011;10652;50.306;8.570;2022-08-19T18:39:50;7.60;;;4.57;;
20986;SDS011;10652;50.306;8.570;2022-08-19T18:44:10;7.20;;;4.40;;
20986;SDS011;10652;50.306;8.570;2022-08-19T18:48:31;6.43;;;4.50;;
20986;SDS011;10652;50.306;8.570;2022-08-19T18:52:52;4.75;;;4.20;;
20986;SDS011;10652;50.306;8.570;2022-08-19T18:56:54;4.80;;;4.15;;
20986;SDS011;10652;50.306;8.570;2022-08-19T19:00:56;5.25;;;4.75;;
20986;SDS011;10652;50.306;8.570;2022-08-19T19:04:59;6.15;;;4.75;;
20986;SDS011;10652;50.306;8.570;2022-08-19T19:09:18;5.60;;;4.70;;
20986;SDS011;10652;50.306;8.570;2022-08-19T19:13:22;5.35;;;4.70;;
20986;SDS011;10652;50.306;8.570;2022-08-19T19:17:24;6.85;;;4.95;;
20986;SDS011;10652;50.306;8.570;2022-08-19T19:21:29;5.22;;;4.70;;
20986;SDS011;10652;50.306;8.570;2022-08-19T19:25:36;5.53;;;5.03;;
20986;SDS011;10652;50.306;8.570;2022-08-19T19:29:52;5.20;;;4.53;;
20986;SDS011;10652;50.306;8.570;2022-08-19T19:33:54;5.90;;;4.40;;
20986;SDS011;10652;50.306;8.570;2022-08-19T19:37:57;5.72;;;5.18;;
20986;SDS011;10652;50.306;8.570;2022-08-19T19:41:59;5.95;;;5.13;;
20986;SDS011;10652;50.306;8.570;2022-08-19T19:46:02;5.25;;;4.75;;
20986;SDS011;10652;50.306;8.570;2022-08-19T19:50:08;7.28;;;5.07;;
20986;SDS011;10652;50.306;8.570;2022-08-19T19:54:16;5.93;;;5.05;;
20986;SDS011;10652;50.306;8.570;2022-08-19T19:58:25;6.20;;;5.05;;
20986;SDS011;10652;50.306;8.570;2022-08-19T20:02:29;5.10;;;4.57;;
20986;SDS011;10652;50.306;8.570;2022-08-19T20:06:32;10.63;;;4.70;;
20986;SDS011;10652;50.306;8.570;2022-08-19T20:10:34;8.05;;;4.82;;
20986;SDS011;10652;50.306;8.570;2022-08-19T20:14:36;5.75;;;4.90;;
20986;SDS011;10652;50.306;8.570;2022-08-19T20:18:39;6.20;;;4.90;;
20986;SDS011;10652;50.306;8.570;2022-08-19T20:22:43;6.28;;;5.10;;
20986;SDS011;10652;50.306;8.570;2022-08-19T20:26:48;6.23;;;4.70;;
20986;SDS011;10652;50.306;8.570;2022-08-19T20:30:54;5.47;;;4.80;;
20986;SDS011;10652;50.306;8.570;2022-08-19T20:34:57;7.05;;;4.80;;
20986;SDS011;10652;50.306;8.570;2022-08-19T20:38:59;6.13;;;5.18;;
20986;SDS011;10652;50.306;8.570;2022-08-19T20:43:05;5.05;;;4.63;;
20986;SDS011;10652;50.306;8.570;2022-08-19T20:47:09;5.82;;;5.10;;
20986;SDS011;10652;50.306;8.570;2022-08-19T20:51:11;5.75;;;4.78;;
20986;SDS011;10652;50.306;8.570;2022-08-19T20:55:14;6.35;;;5.05;;
20986;SDS011;10652;50.306;8.570;2022-08-19T20:59:19;6.50;;;4.80;;
20986;SDS011;10652;50.306;8.570;2022-08-19T21:03:23;8.50;;;5.00;;
20986;SDS011;10652;50.306;8.570;2022-08-19T21:07:27;6.93;;;5.05;;
20986;SDS011;10652;50.306;8.570;2022-08-19T21:11:40;7.63;;;4.75;;
20986;SDS011;10652;50.306;8.570;2022-08-19T21:15:42;5.57;;;4.57;;
20986;SDS011;10652;50.306;8.570;2022-08-19T21:19:45;6.45;;;4.47;;
20986;SDS011;10652;50.306;8.570;2022-08-19T21:23:47;5.78;;;4.38;;
20986;SDS011;10652;50.306;8.570;2022-08-19T21:27:50;6.72;;;4.43;;
20986;SDS011;10652;50.306;8.570;2022-08-19T21:31:52;8.70;;;4.60;;
20986;SDS011;10652;50.306;8.570;2022-08-19T21:35:54;6.68;;;4.25;;
20986;SDS011;10652;50.306;8.570;2022-08-19T21:39:56;5.05;;;4.07;;
20986;SDS011;10652;50.306;8.570;2022-08-19T21:43:58;4.72;;;4.28;;
20986;SDS011;10652;50.306;8.570;2022-08-19T21:48:01;5.05;;;3.95;;
20986;SDS011;10652;50.306;8.570;2022-08-19T21:52:03;4.47;;;3.67;;
20986;SDS011;10652;50.306;8.570;2022-08-19T21:56:05;5.82;;;4.30;;
20986;SDS011;10652;50.306;8.570;2022-08-19T22:00:11;3.90;;;3.50;;
20986;SDS011;10652;50.306;8.570;2022-08-19T22:04:17;4.55;;;3.67;;
20986;SDS011;10652;50.306;8.570;2022-08-19T22:08:20;4.57;;;3.30;;
20986;SDS011;10652;50.306;8.570;2022-08-19T22:12:24;6.45;;;3.38;;
20986;SDS011;10652;50.306;8.570;2022-08-19T22:16:28;5.65;;;3.55;;
20986;SDS011;10652;50.306;8.570;2022-08-19T22:20:30;5.53;;;3.13;;
20986;SDS011;10652;50.306;8.570;2022-08-19T22:24:33;5.65;;;3.15;;
20986;SDS011;10652;50.306;8.570;2022-08-19T22:28:35;4.60;;;3.17;;
20986;SDS011;10652;50.306;8.570;2022-08-19T22:32:42;3.90;;;2.97;;
20986;SDS011;10652;50.306;8.570;2022-08-19T22:36:45;7.30;;;3.15;;
20986;SDS011;10652;50.306;8.570;2022-08-19T22:40:48;7.78;;;3.08;;
20986;SDS011;10652;50.306;8.570;2022-08-19T22:44:51;4.70;;;2.90;;
20986;SDS011;10652;50.306;8.570;2022-08-19T22:48:55;5.47;;;3.20;;
20986;SDS011;10652;50.306;8.570;2022-08-19T22:53:02;4.80;;;2.80;;
20986;SDS011;10652;50.306;8.570;2022-08-19T22:57:06;3.55;;;2.67;;
20986;SDS011;10652;50.306;8.570;2022-08-19T23:01:09;4.10;;;2.65;;
20986;SDS011;10652;50.306;8.570;2022-08-19T23:05:30;8.73;;;3.15;;
20986;SDS011;10652;50.306;8.570;2022-08-19T23:09:36;4.15;;;2.75;;
20986;SDS011;10652;50.306;8.570;2022-08-19T23:13:40;3.17;;;2.42;;
20986;SDS011;10652;50.306;8.570;2022-08-19T23:17:42;3.22;;;2.75;;
20986;SDS011;10652;50.306;8.570;2022-08-19T23:21:45;3.45;;;2.33;;
20986;SDS011;10652;50.306;8.570;2022-08-19T23:25:48;3.55;;;2.50;;
20986;SDS011;10652;50.306;8.570;2022-08-19T23:29:50;3.60;;;2.28;;
20986;SDS011;10652;50.306;8.570;2022-08-19T23:34:11;5.18;;;2.78;;
20986;SDS011;10652;50.306;8.570;2022-08-19T23:38:13;4.10;;;2.50;;
20986;SDS011;10652;50.306;8.570;2022-08-19T23:42:15;2.83;;;2.30;;
20986;SDS011;10652;50.306;8.570;2022-08-19T23:46:18;4.63;;;2.63;;
20986;SDS011;10652;50.306;8.570;2022-08-19T23:50:29;6.05;;;2.78;;
20986;SDS011;10652;50.306;8.570;2022-08-19T23:54:31;3.72;;;2.60;;
20986;SDS011;10652;50.306;8.570;2022-08-19T23:58:44;3.28;;;2.28;;
